Time;durP1;ratioP1;P1;durP2;ratioP2;P2;SDS_P1;SDS_P2;PMS_P1;PMS_P2;Temp;Humidity;BMP_temperature;BMP_pressure;BME280_temperature;BME280_humidity;BME280_pressure;Samples;Min_cycle;Max_cycle;Signal;HPM_P1;HPM_P2
2022/05/13 00:01:41;;;;;;;4.35;3.60;;;;;;;21.42;39.62;101295.56;5087058;28;20846;-69
2022/05/13 00:04:08;;;;;;;4.95;3.63;;;;;;;21.40;39.81;101289.59;5086946;28;20418;-69
2022/05/13 00:06:36;;;;;;;4.90;3.55;;;;;;;21.39;39.96;101293.31;5086873;28;20418;-68
2022/05/13 00:09:03;;;;;;;4.70;3.45;;;;;;;21.36;40.02;101293.78;5086868;28;20907;-70
2022/05/13 00:11:30;;;;;;;4.80;3.50;;;;;;;21.35;39.84;101289.44;5084004;28;20803;-70
2022/05/13 00:13:58;;;;;;;4.72;3.72;;;;;;;21.30;40.19;101278.50;5087005;28;20416;-70
2022/05/13 00:16:26;;;;;;;3.97;3.28;;;;;;;21.29;39.81;101276.88;5086721;28;20412;-69
2022/05/13 00:18:53;;;;;;;5.25;3.40;;;;;;;21.30;40.03;101286.59;5086846;28;20430;-69
2022/05/13 00:21:20;;;;;;;6.70;3.60;;;;;;;21.24;40.02;101276.72;5086886;28;20414;-70
2022/05/13 00:23:47;;;;;;;5.30;3.30;;;;;;;21.21;40.24;101280.69;5086573;28;20414;-69
2022/05/13 00:26:14;;;;;;;6.43;3.58;;;;;;;21.16;40.18;101281.38;5086917;28;20421;-69
2022/05/13 00:28:41;;;;;;;6.37;3.80;;;;;;;21.13;40.17;101272.94;5080634;28;20418;-69
2022/05/13 00:31:42;;;;;;;5.13;3.42;;;;;;;21.08;40.11;101272.78;5127265;27;20399;-71
2022/05/13 00:34:09;;;;;;;5.13;3.60;;;;;;;21.06;40.21;101275.69;5126785;28;20437;-72
2022/05/13 00:36:36;;;;;;;4.20;3.40;;;;;;;21.02;40.79;101271.00;5107203;28;20473;-71
2022/05/13 00:39:04;;;;;;;4.53;3.40;;;;;;;20.98;40.38;101284.91;5107498;28;20413;-71
2022/05/13 00:41:31;;;;;;;5.85;3.63;;;;;;;20.94;39.98;101283.72;5105150;28;21162;-71
2022/05/13 00:43:59;;;;;;;3.80;3.30;;;;;;;20.91;39.90;101292.25;5105327;28;20499;-71
2022/05/13 00:46:28;;;;;;;3.60;3.20;;;;;;;20.85;40.10;101286.94;5107414;28;20494;-71
2022/05/13 00:48:59;;;;;;;5.65;3.47;;;;;;;20.79;40.15;101286.78;5105177;28;20472;-71
2022/05/13 00:51:30;;;;;;;5.32;3.40;;;;;;;20.75;40.01;101287.47;5107325;28;20500;-71
2022/05/13 00:53:58;;;;;;;5.45;3.53;;;;;;;20.69;40.03;101280.25;5106138;28;20470;-71
2022/05/13 00:56:26;;;;;;;4.97;3.42;;;;;;;20.64;39.97;101291.72;5106720;28;20778;-71
2022/05/13 00:58:58;;;;;;;4.47;3.30;;;;;;;20.64;39.87;101280.13;5106674;28;20412;-71
2022/05/13 01:01:25;;;;;;;5.07;3.40;;;;;;;20.61;39.24;101281.38;5106838;28;20941;-71
2022/05/13 01:03:53;;;;;;;5.25;3.22;;;;;;;20.53;39.07;101282.47;5109203;28;20447;-71
2022/05/13 01:06:25;;;;;;;3.72;3.28;;;;;;;20.51;38.93;101275.66;5109172;28;20565;-70
2022/05/13 01:08:52;;;;;;;5.25;3.30;;;;;;;20.44;39.04;101281.13;5106677;28;20408;-70
2022/05/13 01:11:23;;;;;;;4.05;3.30;;;;;;;20.41;39.26;101279.66;5107086;28;20428;-70
2022/05/13 01:13:53;;;;;;;4.03;3.40;;;;;;;20.39;38.99;101279.06;5106834;28;20409;-71
2022/05/13 01:16:20;;;;;;;5.50;3.03;;;;;;;20.40;38.95;101278.03;5106908;28;20470;-72
2022/05/13 01:18:46;;;;;;;5.53;3.30;;;;;;;20.47;38.69;101277.16;5106519;28;20405;-72
2022/05/13 01:21:19;;;;;;;3.85;3.10;;;;;;;20.51;38.56;101276.50;5106245;28;20408;-71
2022/05/13 01:23:47;;;;;;;3.80;3.20;;;;;;;20.53;38.58;101269.00;5106743;28;20778;-71
2022/05/13 01:26:17;;;;;;;4.97;3.25;;;;;;;20.56;38.53;101282.03;5106401;28;20856;-71
2022/05/13 01:28:47;;;;;;;3.67;3.10;;;;;;;20.60;38.48;101271.66;5106206;28;20409;-71
2022/05/13 01:31:23;;;;;;;4.53;3.45;;;;;;;20.64;38.72;101275.56;5105891;28;20432;-71
2022/05/13 01:33:50;;;;;;;4.00;3.08;;;;;;;20.67;38.61;101274.28;5106563;28;20413;-72
2022/05/13 01:36:16;;;;;;;4.30;3.22;;;;;;;20.68;38.58;101265.97;5105546;28;20408;-72
2022/05/13 01:38:44;;;;;;;5.03;3.33;;;;;;;20.72;38.72;101271.75;5105840;28;20417;-71
2022/05/13 01:41:13;;;;;;;4.88;3.63;;;;;;;20.72;38.82;101267.16;5102879;28;20421;-71
2022/05/13 01:43:42;;;;;;;4.90;3.53;;;;;;;20.67;38.98;101268.88;5092490;28;20405;-71
2022/05/13 01:46:10;;;;;;;4.68;3.70;;;;;;;20.64;38.72;101274.75;5092462;28;20409;-71
2022/05/13 01:48:37;;;;;;;4.70;3.63;;;;;;;20.62;39.25;101269.56;5092629;28;20783;-72
2022/05/13 01:51:05;;;;;;;5.55;3.47;;;;;;;20.61;38.95;101257.97;5092287;28;20436;-72
2022/05/13 01:53:32;;;;;;;4.27;3.40;;;;;;;20.57;39.00;101254.03;5092638;28;20413;-72
2022/05/13 01:55:59;;;;;;;5.90;3.88;;;;;;;20.59;38.67;101261.91;5092242;28;20836;-71
2022/05/13 01:58:28;;;;;;;3.90;3.50;;;;;;;20.60;38.50;101260.88;5092170;28;20416;-71
2022/05/13 02:00:57;;;;;;;4.07;3.47;;;;;;;20.61;38.41;101257.16;5092164;28;20408;-72
2022/05/13 02:06:10;;;;;;;5.82;3.42;;;;;;;20.60;38.37;101266.25;5092125;28;20941;-71
2022/05/13 02:08:37;;;;;;;5.05;3.45;;;;;;;20.60;38.25;101266.25;5092101;28;20413;-71
2022/05/13 02:11:04;;;;;;;4.35;3.28;;;;;;;20.60;38.50;101267.06;5092246;28;20425;-71
2022/05/13 02:15:18;;;;;;;4.88;3.30;;;;;;;20.56;38.62;101263.19;5086163;27;20788;-71
2022/05/13 02:17:46;;;;;;;6.60;3.60;;;;;;;20.57;38.43;101266.69;5087325;28;20414;-71
2022/05/13 02:20:14;;;;;;;4.38;3.40;;;;;;;20.54;38.67;101267.94;5087155;28;20409;-71
2022/05/13 02:22:40;;;;;;;5.78;3.63;;;;;;;20.51;38.60;101265.72;5087231;28;20419;-70
2022/05/13 02:26:15;;;;;;;4.30;3.35;;;;;;;20.47;38.52;101271.75;5127314;27;20399;-68
2022/05/13 02:28:43;;;;;;;5.18;3.45;;;;;;;20.48;38.56;101268.84;5127946;28;21243;-69
2022/05/13 02:31:10;;;;;;;5.65;3.58;;;;;;;20.46;38.58;101273.63;5127774;28;20788;-69
2022/05/13 02:33:37;;;;;;;4.65;3.53;;;;;;;20.46;38.74;101270.13;5107528;28;20416;-68
2022/05/13 02:36:06;;;;;;;4.50;3.40;;;;;;;20.41;38.84;101270.78;5106876;28;20400;-69
2022/05/13 02:39:14;;;;;;;5.05;3.70;;;;;;;20.38;39.04;101276.59;5113679;27;20405;-69
2022/05/13 02:41:44;;;;;;;6.63;3.95;;;;;;;20.38;39.18;101274.75;5090560;28;20406;-69
2022/05/13 02:44:11;;;;;;;6.97;3.80;;;;;;;20.28;39.46;101287.88;5092924;28;20861;-69
2022/05/13 02:46:38;;;;;;;5.45;4.03;;;;;;;20.26;39.61;101276.50;5085861;28;20422;-69
2022/05/13 02:49:05;;;;;;;4.37;3.80;;;;;;;20.26;39.53;101279.22;5088179;28;20418;-69
2022/05/13 02:51:32;;;;;;;4.35;3.80;;;;;;;20.21;39.81;101284.44;5088541;28;20418;-69
2022/05/13 02:53:59;;;;;;;6.13;3.80;;;;;;;20.15;39.84;101283.44;5094103;28;20412;-68
2022/05/13 02:56:27;;;;;;;6.93;3.88;;;;;;;20.09;40.31;101276.22;5100703;28;20932;-69
2022/05/13 02:58:54;;;;;;;5.60;3.85;;;;;;;20.02;39.97;101278.16;5085636;28;20961;-69
2022/05/13 03:01:21;;;;;;;6.57;4.03;;;;;;;19.98;40.06;101285.84;5089475;28;20422;-68
2022/05/13 03:03:49;;;;;;;6.72;3.90;;;;;;;19.92;40.01;101291.28;5102710;28;20782;-68
2022/05/13 03:06:17;;;;;;;10.32;4.55;;;;;;;19.89;39.97;101289.03;5091191;28;20412;-71
2022/05/13 03:08:44;;;;;;;6.65;4.00;;;;;;;19.85;39.86;101291.31;5098512;28;20422;-71
2022/05/13 03:11:12;;;;;;;5.47;3.80;;;;;;;19.80;39.68;101300.03;5092572;28;20458;-71
2022/05/13 03:13:41;;;;;;;5.90;3.80;;;;;;;19.81;39.52;101298.19;5087651;28;20421;-71
2022/05/13 03:16:10;;;;;;;5.80;4.15;;;;;;;19.81;39.64;101290.13;5088188;28;20502;-71
2022/05/13 03:18:39;;;;;;;7.05;3.63;;;;;;;19.77;39.64;101294.25;5099272;28;20444;-71
2022/05/13 03:21:06;;;;;;;6.63;3.75;;;;;;;19.83;39.41;101296.09;5085244;28;20513;-71
2022/05/13 03:23:32;;;;;;;6.80;3.95;;;;;;;19.84;39.62;101300.41;5099834;28;20412;-71
2022/05/13 03:25:59;;;;;;;6.17;3.63;;;;;;;19.85;39.46;101304.78;5088743;28;20424;-71
2022/05/13 03:28:27;;;;;;;4.35;3.50;;;;;;;19.90;39.28;101294.19;5085054;28;20428;-71
2022/05/13 03:30:55;;;;;;;4.10;3.40;;;;;;;19.96;39.00;101304.06;5086316;28;20421;-71
2022/05/13 03:33:24;;;;;;;6.95;3.50;;;;;;;20.05;38.87;101299.25;5099569;28;20408;-71
2022/05/13 03:35:51;;;;;;;6.35;3.67;;;;;;;20.14;38.87;101300.63;5105901;28;20404;-71
2022/05/13 03:38:18;;;;;;;6.05;3.58;;;;;;;20.29;38.51;101304.84;5085512;28;20440;-71
2022/05/13 03:40:46;;;;;;;12.53;4.27;;;;;;;20.41;38.35;101303.91;5090031;28;20457;-69
2022/05/13 03:43:13;;;;;;;8.00;4.10;;;;;;;20.55;38.15;101307.31;5092558;28;20445;-71
2022/05/13 03:45:40;;;;;;;7.05;3.83;;;;;;;20.68;38.04;101309.09;5092094;28;20453;-71
2022/05/13 03:48:09;;;;;;;10.63;4.40;;;;;;;20.80;37.59;101307.31;5100161;28;20500;-71
2022/05/13 03:50:38;;;;;;;12.00;4.13;;;;;;;21.04;36.97;101315.53;5075358;28;20420;-70
2022/05/13 03:53:05;;;;;;;8.98;3.88;;;;;;;21.15;36.73;101322.06;5076596;28;20418;-71
2022/05/13 03:55:33;;;;;;;6.70;3.40;;;;;;;21.38;36.63;101318.66;5076594;28;20418;-71
2022/05/13 03:58:00;;;;;;;5.93;3.30;;;;;;;21.61;35.93;101322.53;5070862;28;20431;-71
2022/05/13 04:00:28;;;;;;;17.95;3.95;;;;;;;21.86;35.48;101317.81;5074758;28;20786;-71
2022/05/13 04:02:55;;;;;;;4.77;3.40;;;;;;;22.14;35.00;101314.47;5068735;28;20435;-71
2022/05/13 04:10:53;;;;;;;9.10;3.50;;;;;;;23.13;33.12;101326.47;5075526;28;20786;-71
2022/05/13 04:16:08;;;;;;;7.40;4.50;;;;;;;23.95;32.34;101330.78;5087266;28;21069;-71
2022/05/13 04:18:37;;;;;;;10.80;5.10;;;;;;;24.37;31.41;101326.84;5076550;28;20435;-71
2022/05/13 04:21:08;;;;;;;5.80;4.47;;;;;;;24.77;30.97;101328.53;5081301;28;20427;-71
2022/05/13 04:23:36;;;;;;;7.22;4.40;;;;;;;25.17;30.16;101327.41;5072602;28;20421;-72
2022/05/13 04:26:04;;;;;;;8.82;5.18;;;;;;;25.47;29.65;101334.31;5071801;28;20425;-72
2022/05/13 04:28:31;;;;;;;10.77;5.05;;;;;;;25.84;28.94;101328.16;5069816;28;21618;-72
2022/05/13 04:30:59;;;;;;;9.18;4.85;;;;;;;26.32;28.24;101329.13;5070522;28;20937;-70
2022/05/13 04:33:26;;;;;;;10.70;5.00;;;;;;;26.99;27.44;101324.13;5071002;28;20415;-72
2022/05/13 04:35:53;;;;;;;9.88;4.70;;;;;;;27.71;26.75;101322.44;5067636;28;20884;-70
2022/05/13 04:38:22;;;;;;;11.95;4.95;;;;;;;28.46;25.83;101323.84;5070972;28;20431;-72
2022/05/13 04:40:48;;;;;;;10.75;4.53;;;;;;;28.97;25.07;101320.97;5073276;28;20415;-71
2022/05/13 04:43:14;;;;;;;7.93;4.28;;;;;;;29.53;24.42;101328.94;5083278;28;20918;-70
2022/05/13 04:48:26;;;;;;;8.73;4.07;;;;;;;30.67;23.15;101313.22;5064480;28;20433;-71
2022/05/13 04:50:57;;;;;;;8.02;4.40;;;;;;;31.04;22.57;101308.13;5085151;28;20419;-70
2022/05/13 04:53:29;;;;;;;9.70;4.50;;;;;;;31.47;21.82;101312.75;5073946;28;20434;-71
2022/05/13 04:55:57;;;;;;;11.55;4.43;;;;;;;31.69;21.54;101312.16;5068359;28;20480;-70
2022/05/13 04:58:25;;;;;;;8.63;4.32;;;;;;;31.92;21.22;101321.41;5070354;28;20932;-71
2022/05/13 05:00:54;;;;;;;8.15;3.72;;;;;;;32.23;20.89;101309.91;5066691;28;20427;-70
2022/05/13 05:03:22;;;;;;;7.72;4.28;;;;;;;32.57;21.00;101315.03;5069548;28;20429;-71
2022/05/13 05:05:49;;;;;;;6.25;4.50;;;;;;;32.88;20.76;101317.19;5062907;28;20449;-71
2022/05/13 05:08:17;;;;;;;9.82;4.78;;;;;;;33.18;20.31;101306.72;5061510;28;20434;-71
2022/05/13 05:10:47;;;;;;;7.07;4.65;;;;;;;33.46;19.59;101310.19;5062745;28;20422;-71
2022/05/13 05:13:19;;;;;;;14.10;5.32;;;;;;;33.83;19.51;101310.97;5063487;28;20990;-72
2022/05/13 05:15:46;;;;;;;10.23;4.60;;;;;;;34.14;19.23;101311.00;5063493;28;20423;-71
2022/05/13 05:18:13;;;;;;;8.85;4.60;;;;;;;34.33;18.99;101307.25;5070454;28;20431;-70
2022/05/13 05:20:40;;;;;;;9.63;4.70;;;;;;;34.45;18.90;101311.00;5070487;28;20411;-71
2022/05/13 05:23:07;;;;;;;10.05;4.95;;;;;;;34.93;18.58;101314.91;5070316;28;20421;-70
2022/05/13 05:25:35;;;;;;;10.82;4.90;;;;;;;35.44;18.27;101318.06;5066377;28;20422;-71
2022/05/13 05:28:04;;;;;;;12.70;4.25;;;;;;;35.83;17.74;101316.25;5064720;28;20415;-72
2022/05/13 05:30:31;;;;;;;8.20;4.00;;;;;;;36.12;17.42;101323.00;5065001;28;20406;-72
2022/05/13 05:32:58;;;;;;;12.10;4.43;;;;;;;36.29;17.24;101328.53;5065064;28;20414;-72
2022/05/13 05:35:25;;;;;;;8.25;4.25;;;;;;;36.39;17.28;101321.81;5064662;28;20422;-72
2022/05/13 05:37:52;;;;;;;6.07;3.80;;;;;;;36.76;16.91;101316.63;5063900;28;20423;-72
2022/05/13 05:40:20;;;;;;;10.23;3.63;;;;;;;36.90;17.10;101316.41;5064794;28;20419;-73
2022/05/13 05:42:48;;;;;;;5.20;3.60;;;;;;;37.25;16.44;101321.69;5064782;28;20793;-72
2022/05/13 05:45:19;;;;;;;9.60;3.93;;;;;;;37.54;16.36;101317.22;5064606;28;20425;-71
2022/05/13 05:47:47;;;;;;;7.90;3.70;;;;;;;37.83;16.05;101313.53;5064355;28;20982;-72
2022/05/13 05:50:17;;;;;;;7.95;3.90;;;;;;;38.04;16.05;101305.97;5064495;28;20502;-70
2022/05/13 05:52:44;;;;;;;4.77;3.30;;;;;;;38.05;15.95;101304.03;5064443;28;20411;-69
2022/05/13 05:57:58;;;;;;;4.50;3.53;;;;;;;38.63;15.97;101309.53;5064582;28;20428;-70
2022/05/13 06:00:28;;;;;;;6.18;4.07;;;;;;;38.91;15.53;101308.81;5064305;28;20411;-70
2022/05/13 06:02:55;;;;;;;9.23;3.92;;;;;;;39.39;15.23;101304.31;5064336;28;20426;-70
2022/05/13 06:05:23;;;;;;;6.68;3.85;;;;;;;39.73;14.91;101302.91;5064458;28;20442;-70
2022/05/13 06:07:50;;;;;;;6.65;3.60;;;;;;;39.78;14.75;101307.41;5064528;28;20418;-69
2022/05/13 06:10:18;;;;;;;6.50;4.03;;;;;;;40.09;14.63;101311.38;5064312;28;20425;-72
2022/05/13 06:12:45;;;;;;;4.13;3.60;;;;;;;40.18;14.40;101314.00;5064478;28;20411;-73
2022/05/13 06:15:13;;;;;;;6.65;4.10;;;;;;;40.44;14.59;101311.47;5064744;28;20414;-74
2022/05/13 06:17:46;;;;;;;8.80;4.13;;;;;;;39.84;15.13;101310.72;5064901;28;20414;-72
2022/05/13 06:20:14;;;;;;;10.15;4.05;;;;;;;39.52;15.62;101316.97;5064565;28;20435;-73
2022/05/13 06:22:41;;;;;;;7.55;4.10;;;;;;;39.97;15.58;101305.91;5064512;28;20425;-75
2022/05/13 06:25:09;;;;;;;7.65;4.03;;;;;;;40.34;14.91;101306.47;5061078;28;20418;-73
2022/05/13 06:27:37;;;;;;;9.45;4.22;;;;;;;39.71;15.49;101309.97;5061891;28;20425;-74
2022/05/13 06:30:05;;;;;;;4.95;3.55;;;;;;;40.29;15.11;101313.06;5061529;28;20421;-74
2022/05/13 06:32:32;;;;;;;6.55;3.80;;;;;;;40.32;14.71;101311.56;5062471;28;20797;-73
2022/05/13 06:35:00;;;;;;;6.28;3.85;;;;;;;39.99;15.04;101309.94;5062571;28;20411;-73
2022/05/13 06:37:27;;;;;;;7.28;3.78;;;;;;;39.43;16.03;101312.72;5062854;28;20418;-76
2022/05/13 06:39:54;;;;;;;4.32;3.65;;;;;;;39.13;16.11;101319.44;5062526;28;20441;-73
2022/05/13 06:42:21;;;;;;;5.05;3.63;;;;;;;38.82;16.35;101320.00;5062207;28;20422;-73
2022/05/13 06:44:48;;;;;;;5.30;3.60;;;;;;;38.44;16.84;101321.16;5062146;28;20417;-74
2022/05/13 06:47:15;;;;;;;4.68;3.78;;;;;;;37.84;17.08;101317.94;5063061;28;20426;-74
2022/05/13 06:49:42;;;;;;;5.60;3.92;;;;;;;37.43;18.01;101319.59;5062376;28;20918;-74
2022/05/13 06:52:13;;;;;;;6.03;3.72;;;;;;;37.25;17.97;101316.16;5062322;28;20836;-74
2022/05/13 06:54:40;;;;;;;8.80;4.30;;;;;;;36.86;18.45;101318.19;5063028;28;20506;-73
2022/05/13 06:57:07;;;;;;;8.25;3.67;;;;;;;36.68;18.74;101320.25;5062764;28;20426;-74
2022/05/13 06:59:34;;;;;;;9.35;4.03;;;;;;;36.06;19.02;101311.34;5062311;28;20458;-74
2022/05/13 07:02:01;;;;;;;6.27;4.00;;;;;;;35.30;20.17;101306.41;5063069;28;20427;-75
2022/05/13 07:04:28;;;;;;;7.78;4.22;;;;;;;34.98;20.63;101309.25;5062271;28;20441;-73
2022/05/13 07:06:55;;;;;;;8.57;4.23;;;;;;;34.54;20.93;101312.97;5062218;28;20908;-74
2022/05/13 07:09:24;;;;;;;20.15;5.47;;;;;;;33.70;21.93;101313.47;5062806;28;20403;-73
2022/05/13 07:11:50;;;;;;;10.60;5.10;;;;;;;32.83;23.11;101320.06;5062462;28;20421;-74
2022/05/13 07:14:17;;;;;;;8.07;4.38;;;;;;;32.45;23.70;101318.28;5062782;28;20415;-74
2022/05/13 07:16:44;;;;;;;7.20;4.40;;;;;;;32.16;23.89;101316.63;5062272;28;21210;-73
2022/05/13 07:19:11;;;;;;;7.13;4.40;;;;;;;31.79;24.42;101307.34;5062464;28;20529;-73
2022/05/13 07:21:38;;;;;;;8.38;4.80;;;;;;;31.38;25.05;101309.88;5062367;28;20415;-73
2022/05/13 07:24:06;;;;;;;8.75;4.40;;;;;;;30.98;26.05;101317.53;5063246;28;20426;-75
2022/05/13 07:26:34;;;;;;;8.27;4.70;;;;;;;30.96;26.10;101314.28;5065935;28;20414;-75
2022/05/13 07:29:01;;;;;;;5.95;4.13;;;;;;;30.87;26.11;101309.41;5065940;28;20669;-74
2022/05/13 07:31:28;;;;;;;5.70;4.25;;;;;;;30.57;26.66;101316.03;5066295;28;20437;-74
2022/05/13 07:33:55;;;;;;;6.10;4.50;;;;;;;30.15;27.06;101309.34;5065784;28;20472;-75
2022/05/13 07:36:22;;;;;;;6.22;4.10;;;;;;;29.97;27.32;101313.59;5065798;28;20415;-75
2022/05/13 07:41:35;;;;;;;11.80;4.60;;;;;;;29.27;28.64;101311.84;5065866;28;20410;-75
2022/05/13 07:44:02;;;;;;;9.00;4.05;;;;;;;28.96;29.22;101309.25;5065483;28;20427;-75
2022/05/13 07:46:29;;;;;;;6.07;4.10;;;;;;;28.75;29.51;101305.78;5064844;28;20414;-73
2022/05/13 07:48:56;;;;;;;7.35;4.43;;;;;;;29.06;29.25;101299.38;5065324;28;21250;-75
2022/05/13 07:51:26;;;;;;;6.13;3.83;;;;;;;28.73;29.27;101299.78;5065169;28;20505;-75
2022/05/13 07:53:53;;;;;;;7.30;4.35;;;;;;;28.86;28.91;101295.63;5065720;28;20414;-75
2022/05/13 07:56:20;;;;;;;6.70;4.20;;;;;;;29.00;29.60;101297.78;5065061;28;20442;-72
2022/05/13 07:58:49;;;;;;;4.95;3.83;;;;;;;29.21;29.46;101295.78;5064059;28;20434;-75
2022/05/13 08:01:16;;;;;;;8.02;4.13;;;;;;;29.38;28.92;101293.50;5064478;28;20415;-73
2022/05/13 08:03:44;;;;;;;6.77;3.87;;;;;;;29.27;29.02;101295.47;5064987;28;20426;-73
2022/05/13 08:06:13;;;;;;;5.60;3.85;;;;;;;29.47;28.63;101291.00;5064650;28;20410;-72
2022/05/13 08:08:45;;;;;;;7.78;4.13;;;;;;;29.78;28.49;101283.41;5065432;28;20979;-73
2022/05/13 08:11:17;;;;;;;7.38;4.00;;;;;;;29.95;27.87;101287.66;5065482;28;21026;-74
2022/05/13 08:13:44;;;;;;;4.75;3.97;;;;;;;29.93;27.66;101282.47;5064969;28;20422;-75
2022/05/13 08:16:15;;;;;;;7.32;3.95;;;;;;;29.87;27.83;101281.72;5064546;28;20431;-75
2022/05/13 08:18:43;;;;;;;8.90;4.10;;;;;;;30.05;27.67;101284.81;5065172;28;20417;-75
2022/05/13 08:21:10;;;;;;;6.55;3.70;;;;;;;30.28;27.44;101284.03;5064860;28;20411;-75
2022/05/13 08:23:38;;;;;;;5.68;3.80;;;;;;;30.56;27.41;101275.28;5065378;28;20415;-75
2022/05/13 08:26:06;;;;;;;6.38;3.88;;;;;;;30.78;26.56;101275.59;5064987;28;20422;-75
2022/05/13 08:28:33;;;;;;;6.15;3.90;;;;;;;30.88;26.16;101272.72;5065027;28;20494;-75
2022/05/13 08:31:00;;;;;;;4.00;3.60;;;;;;;30.98;25.88;101266.31;5065220;28;20415;-75
2022/05/13 08:33:29;;;;;;;4.43;3.50;;;;;;;31.16;25.41;101272.13;5065194;28;20411;-74
2022/05/13 08:35:58;;;;;;;5.43;3.60;;;;;;;31.39;25.76;101271.22;5064414;28;20442;-75
2022/05/13 08:38:28;;;;;;;5.63;3.97;;;;;;;31.54;25.29;101278.41;5064934;28;20415;-75
2022/05/13 08:41:15;;;;;;;4.20;3.60;;;;;;;31.43;25.80;101277.72;5064916;28;20441;-73
2022/05/13 08:43:44;;;;;;;6.72;3.60;;;;;;;31.68;25.50;101269.44;5065047;28;20603;-75
2022/05/13 08:46:21;;;;;;;4.15;3.40;;;;;;;31.75;24.61;101269.88;5064400;28;21007;-73
2022/05/13 08:48:57;;;;;;;7.55;4.47;;;;;;;31.65;24.42;101259.06;5064329;28;20917;-73
2022/05/13 08:51:36;;;;;;;5.23;3.00;;;;;;;31.65;24.06;101265.34;5064535;28;20800;-73
2022/05/13 08:54:11;;;;;;;3.53;3.00;;;;;;;31.66;23.95;101261.50;5064368;28;20966;-75
2022/05/13 08:56:39;;;;;;;5.03;3.03;;;;;;;31.80;24.67;101251.41;5064362;28;20419;-73
2022/05/13 08:59:09;;;;;;;6.22;3.60;;;;;;;31.92;24.38;101252.84;5065055;28;20434;-74
2022/05/13 09:01:39;;;;;;;4.63;3.13;;;;;;;31.76;23.81;101249.56;5064161;28;21277;-73
2022/05/13 09:04:13;;;;;;;5.18;3.30;;;;;;;31.92;23.88;101250.91;5064242;28;20429;-75
2022/05/13 09:06:47;;;;;;;3.67;3.30;;;;;;;32.03;23.71;101246.06;5064142;28;20966;-73
2022/05/13 09:09:14;;;;;;;5.75;3.50;;;;;;;32.13;23.88;101250.59;5063902;28;20425;-75
2022/05/13 09:11:51;;;;;;;8.63;3.17;;;;;;;32.15;22.79;101246.41;5064048;28;20415;-73
2022/05/13 09:14:30;;;;;;;13.88;3.70;;;;;;;31.96;23.03;101240.16;5063759;28;20429;-75
2022/05/13 09:17:12;;;;;;;4.70;3.27;;;;;;;32.08;23.98;101237.78;5064227;28;20444;-74
2022/05/13 09:19:49;;;;;;;6.93;3.63;;;;;;;32.27;24.23;101240.44;5064231;28;20437;-75
2022/05/13 09:22:16;;;;;;;4.65;3.10;;;;;;;32.35;23.43;101233.41;5063725;28;20410;-73
2022/05/13 09:24:44;;;;;;;5.38;3.17;;;;;;;32.42;23.99;101222.06;5063850;28;20411;-74
2022/05/13 09:27:11;;;;;;;4.70;3.03;;;;;;;32.47;22.86;101222.75;5064141;28;20406;-76
2022/05/13 09:29:42;;;;;;;5.28;3.58;;;;;;;32.48;23.43;101218.88;5063258;28;20913;-75
2022/05/13 09:32:15;;;;;;;4.73;3.40;;;;;;;32.58;24.01;101221.44;5064032;28;20409;-73
2022/05/13 09:34:52;;;;;;;3.35;3.05;;;;;;;32.62;23.18;101218.09;5063259;28;20415;-73
2022/05/13 09:37:22;;;;;;;3.88;3.10;;;;;;;32.69;22.95;101213.00;5062942;28;20849;-73
2022/05/13 09:39:50;;;;;;;4.23;2.93;;;;;;;32.50;22.82;101204.84;5063602;28;21023;-74
2022/05/13 09:42:23;;;;;;;3.75;2.95;;;;;;;32.32;22.35;101209.34;5064196;28;20411;-73
2022/05/13 09:44:52;;;;;;;4.83;3.03;;;;;;;32.39;23.03;101207.81;5063820;28;20414;-76
2022/05/13 09:47:29;;;;;;;4.75;3.17;;;;;;;32.58;23.05;101204.13;5063334;28;20476;-74
2022/05/13 09:50:00;;;;;;;3.42;2.50;;;;;;;32.62;22.18;101190.66;5063112;28;20417;-74
2022/05/13 09:52:32;;;;;;;4.93;2.85;;;;;;;32.47;22.24;101187.06;5063239;28;20402;-74
2022/05/13 09:55:14;;;;;;;6.13;2.90;;;;;;;32.28;22.78;101183.63;5063232;28;20411;-74
2022/05/13 09:57:41;;;;;;;6.20;2.80;;;;;;;32.17;23.42;101183.03;5063387;28;20940;-73
2022/05/13 10:00:14;;;;;;;3.90;2.53;;;;;;;32.01;22.82;101185.22;5063276;28;20802;-74
2022/05/13 10:02:45;;;;;;;4.05;2.60;;;;;;;31.90;22.64;101183.78;5063240;28;20490;-74
2022/05/13 10:05:17;;;;;;;3.70;2.72;;;;;;;31.95;22.89;101179.03;5061360;28;20403;-73
2022/05/13 10:07:55;;;;;;;3.97;3.30;;;;;;;32.00;22.69;101161.69;5063913;28;20467;-73
2022/05/13 10:16:14;;;;;;;6.10;2.58;;;;;;;32.20;21.88;101155.00;5040162;28;20444;-73
2022/05/13 10:18:49;;;;;;;4.60;2.95;;;;;;;31.81;22.18;101153.53;5039824;28;20416;-73
2022/05/13 10:21:23;;;;;;;4.70;2.90;;;;;;;31.74;21.87;101151.16;5051612;28;20974;-73
2022/05/13 10:23:56;;;;;;;3.50;2.60;;;;;;;31.44;22.38;101150.59;5062612;28;21303;-73
2022/05/13 10:26:26;;;;;;;4.10;2.63;;;;;;;31.36;22.60;101142.25;5062963;28;20472;-74
2022/05/13 10:28:58;;;;;;;4.25;2.53;;;;;;;31.18;22.93;101139.22;5062800;28;20421;-74
2022/05/13 10:31:28;;;;;;;3.00;2.60;;;;;;;31.19;22.48;101129.91;5062097;28;20425;-74
2022/05/13 10:34:01;;;;;;;3.70;2.78;;;;;;;31.05;22.76;101127.13;5062065;28;20916;-73
2022/05/13 10:36:39;;;;;;;2.97;2.70;;;;;;;30.97;22.96;101130.56;5062421;28;20939;-73
2022/05/13 10:39:11;;;;;;;4.57;2.65;;;;;;;31.09;22.67;101126.53;5062276;28;20418;-73
2022/05/13 10:41:44;;;;;;;4.50;2.78;;;;;;;31.08;22.46;101120.25;5062344;28;20932;-72
2022/05/13 10:44:17;;;;;;;2.95;2.55;;;;;;;31.13;22.98;101122.09;5062246;28;20956;-73
2022/05/13 10:46:50;;;;;;;4.00;2.63;;;;;;;31.18;22.76;101114.59;5062712;28;20411;-73
2022/05/13 10:49:17;;;;;;;4.20;2.70;;;;;;;31.18;22.80;101113.78;5062334;28;20419;-74
2022/05/13 10:51:53;;;;;;;2.90;2.50;;;;;;;31.15;22.65;101117.94;5062270;28;20407;-73
2022/05/13 10:54:27;;;;;;;3.33;2.40;;;;;;;31.11;22.57;101113.34;5062241;28;20415;-73
2022/05/13 10:57:03;;;;;;;6.65;3.55;;;;;;;31.09;22.40;101104.63;5062275;28;20414;-73
2022/05/13 10:59:39;;;;;;;4.20;2.63;;;;;;;31.01;22.45;101111.59;5063451;28;20487;-73
2022/05/13 11:02:25;;;;;;;6.10;3.15;;;;;;;30.73;22.70;101105.97;5066387;28;20422;-72
2022/05/13 11:04:58;;;;;;;6.63;3.30;;;;;;;30.92;22.80;101103.25;5066167;28;20418;-72
2022/05/13 11:07:33;;;;;;;3.60;2.67;;;;;;;30.96;22.21;101098.00;5065686;28;20914;-73
2022/05/13 11:10:08;;;;;;;6.03;3.08;;;;;;;31.17;23.05;101095.72;5065936;28;20516;-72
2022/05/13 11:12:42;;;;;;;4.00;3.00;;;;;;;31.12;22.39;101088.41;5066315;28;20999;-72
2022/05/13 11:15:21;;;;;;;4.22;3.05;;;;;;;31.25;21.80;101090.38;5066018;28;20454;-72
2022/05/13 11:18:10;;;;;;;4.95;2.83;;;;;;;31.25;21.66;101073.94;5066524;28;20422;-72
2022/05/13 11:20:45;;;;;;;4.82;2.55;;;;;;;31.21;21.82;101078.41;5029640;28;20541;-72
2022/05/13 11:23:26;;;;;;;7.53;3.50;;;;;;;31.41;21.59;101068.19;5065978;28;20419;-72
2022/05/13 11:26:08;;;;;;;3.05;2.47;;;;;;;31.44;21.59;101065.66;5066231;28;20450;-73
2022/05/13 11:29:06;;;;;;;4.78;2.33;;;;;;;31.40;21.22;101056.44;5065640;28;20418;-72
2022/05/13 11:32:15;;;;;;;2.65;2.25;;;;;;;31.47;21.00;101058.75;5066310;28;20407;-72
2022/05/13 11:35:09;;;;;;;3.67;2.40;;;;;;;31.45;20.87;101041.81;5065018;28;20417;-72
2022/05/13 11:37:40;;;;;;;3.78;2.80;;;;;;;31.55;21.59;101041.66;5066439;28;20418;-72
2022/05/13 11:40:19;;;;;;;3.33;2.05;;;;;;;31.57;20.67;101038.59;5065901;28;20462;-72
2022/05/13 11:43:20;;;;;;;5.38;2.35;;;;;;;31.47;20.50;101038.75;5066014;28;20417;-72
2022/05/13 11:46:25;;;;;;;3.92;2.20;;;;;;;31.35;20.74;101036.50;5065739;28;21168;-72
2022/05/13 11:48:54;;;;;;;3.22;2.10;;;;;;;31.40;20.74;101020.81;5065244;28;20792;-72
2022/05/13 11:51:24;;;;;;;3.00;2.35;;;;;;;31.27;21.40;101029.00;5065658;28;20796;-72
2022/05/13 11:53:54;;;;;;;4.18;2.40;;;;;;;31.33;20.87;101031.34;5065361;28;20429;-72
2022/05/13 11:56:34;;;;;;;3.53;2.53;;;;;;;31.22;21.36;101022.53;5065642;28;20415;-72
2022/05/13 11:59:02;;;;;;;5.60;2.70;;;;;;;31.26;22.14;101017.25;5065472;28;20430;-72
2022/05/13 12:01:52;;;;;;;6.18;3.00;;;;;;;31.37;22.32;101012.38;5065652;28;20457;-72
2022/05/13 12:04:31;;;;;;;5.38;2.58;;;;;;;31.54;21.25;101003.59;5065318;28;20429;-72
2022/05/13 12:07:01;;;;;;;4.25;2.47;;;;;;;31.53;21.07;100999.22;5065462;28;20808;-72